Time;durP1;ratioP1;P1;durP2;ratioP2;P2;SDS_P1;SDS_P2;PMS_P1;PMS_P2;Temp;Humidity;BMP_temperature;BMP_pressure;BME280_temperature;BME280_humidity;BME280_pressure;Samples;Min_cycle;Max_cycle;Signal;HPM_P1;HPM_P2
2022/03/10 00:01:09;;;;;;;8.48;4.05;;;;;;;;;;4930772;29;20094;-69
2022/03/10 00:03:39;;;;;;;12.50;4.57;;;;;;;;;;4930827;29;20067;-69
2022/03/10 00:06:09;;;;;;;9.55;4.25;;;;;;;;;;4931328;29;20051;-69
2022/03/10 00:08:41;;;;;;;11.40;4.25;;;;;;;;;;4929358;29;20138;-69
2022/03/10 00:11:10;;;;;;;12.50;4.82;;;;;;;;;;4931722;29;20059;-69
2022/03/10 00:13:41;;;;;;;9.35;4.38;;;;;;;;;;4932029;29;20051;-69
2022/03/10 00:16:10;;;;;;;9.40;4.50;;;;;;;;;;4930466;29;20056;-69
2022/03/10 00:18:39;;;;;;;7.93;3.97;;;;;;;;;;4929116;29;20195;-69
2022/03/10 00:21:07;;;;;;;11.50;4.80;;;;;;;;;;4925961;29;20044;-69
2022/03/10 00:23:36;;;;;;;13.85;4.53;;;;;;;;;;4928058;29;20071;-68
2022/03/10 00:26:13;;;;;;;10.93;3.63;;;;;;;;;;4927230;29;20091;-69
2022/03/10 00:28:48;;;;;;;9.95;4.70;;;;;;;;;;4930552;29;20051;-69
2022/03/10 00:31:17;;;;;;;10.50;4.82;;;;;;;;;;4929387;29;20058;-69
2022/03/10 00:33:53;;;;;;;13.57;4.80;;;;;;;;;;4932863;29;20039;-69
2022/03/10 00:36:22;;;;;;;9.55;4.93;;;;;;;;;;4931254;29;20051;-69
2022/03/10 00:38:50;;;;;;;8.35;4.47;;;;;;;;;;4932574;29;20110;-69
2022/03/10 00:41:20;;;;;;;12.82;4.40;;;;;;;;;;4927746;29;20130;-69
2022/03/10 00:43:50;;;;;;;9.27;3.72;;;;;;;;;;4927922;29;20067;-69
2022/03/10 00:46:18;;;;;;;13.07;4.70;;;;;;;;;;4930430;29;20056;-69
2022/03/10 00:48:47;;;;;;;8.48;4.13;;;;;;;;;;4932831;29;20047;-69
2022/03/10 00:51:16;;;;;;;11.30;4.88;;;;;;;;;;4928560;29;20146;-69
2022/03/10 00:53:45;;;;;;;11.70;4.50;;;;;;;;;;4932448;29;20092;-69
2022/03/10 00:56:13;;;;;;;10.07;4.32;;;;;;;;;;4931801;29;20051;-68
2022/03/10 00:58:43;;;;;;;11.50;4.88;;;;;;;;;;4933244;29;20511;-69
2022/03/10 01:01:11;;;;;;;11.23;4.15;;;;;;;;;;4930949;29;20460;-69
2022/03/10 01:03:40;;;;;;;10.15;5.03;;;;;;;;;;4930441;29;20051;-68
2022/03/10 01:06:11;;;;;;;11.00;5.10;;;;;;;;;;4929693;29;20048;-68
2022/03/10 01:08:40;;;;;;;8.40;4.50;;;;;;;;;;4929418;29;20490;-69
2022/03/10 01:11:09;;;;;;;10.52;4.50;;;;;;;;;;4930717;29;20048;-69
2022/03/10 01:13:37;;;;;;;12.52;5.50;;;;;;;;;;4929616;29;20060;-69
2022/03/10 01:16:10;;;;;;;13.23;5.78;;;;;;;;;;4929493;29;20056;-69
2022/03/10 01:18:39;;;;;;;10.68;5.15;;;;;;;;;;4930133;29;20079;-69
2022/03/10 01:21:09;;;;;;;11.25;4.57;;;;;;;;;;4932951;29;20484;-69
2022/03/10 01:23:37;;;;;;;13.25;5.40;;;;;;;;;;4932974;29;20493;-69
2022/03/10 01:26:09;;;;;;;13.20;4.90;;;;;;;;;;4930714;29;20047;-69
2022/03/10 01:28:37;;;;;;;12.45;5.15;;;;;;;;;;4933046;29;20051;-69
2022/03/10 01:31:11;;;;;;;14.20;5.30;;;;;;;;;;4934048;29;20052;-69
2022/03/10 01:33:39;;;;;;;11.90;5.32;;;;;;;;;;4935120;29;20496;-69
2022/03/10 01:36:08;;;;;;;12.35;5.03;;;;;;;;;;4933607;29;20072;-69
2022/03/10 01:38:39;;;;;;;14.43;5.15;;;;;;;;;;4934018;29;20508;-69
2022/03/10 01:41:08;;;;;;;13.35;5.45;;;;;;;;;;4932985;29;20409;-69
2022/03/10 01:43:55;;;;;;;9.95;4.57;;;;;;;;;;4933416;29;20047;-69
2022/03/10 01:46:26;;;;;;;12.57;5.10;;;;;;;;;;4932124;29;20130;-69
2022/03/10 01:48:55;;;;;;;8.77;4.50;;;;;;;;;;4928897;29;23282;-69
2022/03/10 01:51:24;;;;;;;8.73;4.25;;;;;;;;;;4928696;29;20099;-69
2022/03/10 01:53:53;;;;;;;8.43;4.68;;;;;;;;;;4928814;29;20134;-69
2022/03/10 01:56:22;;;;;;;10.73;4.80;;;;;;;;;;4928113;29;20131;-69
2022/03/10 01:58:52;;;;;;;9.90;4.82;;;;;;;;;;4932639;29;20043;-69
2022/03/10 02:01:21;;;;;;;10.38;5.32;;;;;;;;;;4930924;29;20512;-69
2022/03/10 02:03:51;;;;;;;12.65;5.28;;;;;;;;;;4931527;29;20075;-69
2022/03/10 02:06:20;;;;;;;16.48;6.18;;;;;;;;;;4930953;29;20068;-69
2022/03/10 02:11:35;;;;;;;16.83;6.03;;;;;;;;;;4929104;29;20056;-69
2022/03/10 02:17:19;;;;;;;13.15;5.05;;;;;;;;;;4933414;29;20055;-69
2022/03/10 02:19:40;;;;;;;13.75;4.57;;;;;;;;;;4918987;29;20119;-69
2022/03/10 02:22:11;;;;;;;13.23;4.90;;;;;;;;;;4912889;29;20064;-69
2022/03/10 02:24:41;;;;;;;15.80;5.30;;;;;;;;;;4915058;29;20059;-69
2022/03/10 02:27:13;;;;;;;14.57;5.40;;;;;;;;;;4912064;29;20052;-69
2022/03/10 02:29:42;;;;;;;9.15;4.78;;;;;;;;;;4913897;29;20064;-69
2022/03/10 02:32:11;;;;;;;7.75;5.15;;;;;;;;;;4913624;29;20084;-69
2022/03/10 02:34:40;;;;;;;10.55;4.80;;;;;;;;;;4914920;29;20048;-69
2022/03/10 02:37:10;;;;;;;15.07;5.13;;;;;;;;;;4914140;29;20480;-69
2022/03/10 02:39:39;;;;;;;11.80;5.35;;;;;;;;;;4913605;29;20067;-69
2022/03/10 02:42:08;;;;;;;10.18;4.90;;;;;;;;;;4911491;29;20052;-70
2022/03/10 02:44:41;;;;;;;11.20;4.72;;;;;;;;;;4914069;29;20448;-69
2022/03/10 02:47:09;;;;;;;10.55;4.80;;;;;;;;;;4913389;29;20123;-69
2022/03/10 02:49:38;;;;;;;11.10;5.63;;;;;;;;;;4912488;29;20131;-69
2022/03/10 02:52:07;;;;;;;9.82;5.43;;;;;;;;;;4911639;29;20484;-69
2022/03/10 02:54:44;;;;;;;10.00;5.13;;;;;;;;;;4908184;29;20090;-69
2022/03/10 02:57:13;;;;;;;12.25;5.57;;;;;;;;;;4913067;29;20144;-69
2022/03/10 02:59:42;;;;;;;9.65;4.40;;;;;;;;;;4916129;29;20108;-69
2022/03/10 03:02:12;;;;;;;12.27;4.60;;;;;;;;;;4909124;29;20488;-69
2022/03/10 03:04:42;;;;;;;10.93;4.93;;;;;;;;;;4914425;29;20060;-69
2022/03/10 03:07:10;;;;;;;11.50;4.85;;;;;;;;;;4913318;29;20071;-69
2022/03/10 03:09:39;;;;;;;10.85;5.13;;;;;;;;;;4913858;29;20537;-69
2022/03/10 03:12:09;;;;;;;12.13;5.63;;;;;;;;;;4914274;29;20138;-69
2022/03/10 03:14:37;;;;;;;10.00;4.75;;;;;;;;;;4914420;29;20052;-69
2022/03/10 03:17:05;;;;;;;11.55;5.63;;;;;;;;;;4911541;29;20107;-69
2022/03/10 03:19:34;;;;;;;11.43;4.50;;;;;;;;;;4912536;29;20079;-69
2022/03/10 03:22:03;;;;;;;12.10;5.30;;;;;;;;;;4911930;29;20265;-69
2022/03/10 03:24:31;;;;;;;11.45;4.57;;;;;;;;;;4913675;29;20058;-69
2022/03/10 03:26:59;;;;;;;13.65;5.00;;;;;;;;;;4908737;29;20075;-69
2022/03/10 03:29:29;;;;;;;9.38;4.65;;;;;;;;;;4913378;29;20084;-69
2022/03/10 03:31:58;;;;;;;15.32;5.97;;;;;;;;;;4913361;29;20092;-69
2022/03/10 03:34:27;;;;;;;11.73;4.80;;;;;;;;;;4913493;29;20674;-69
2022/03/10 03:36:56;;;;;;;14.32;5.50;;;;;;;;;;4909928;29;20579;-69
2022/03/10 03:39:24;;;;;;;23.65;6.28;;;;;;;;;;4913164;29;20083;-69
2022/03/10 03:41:52;;;;;;;14.52;5.50;;;;;;;;;;4912737;29;20591;-69
2022/03/10 03:44:20;;;;;;;11.93;5.05;;;;;;;;;;4912545;29;20086;-69
2022/03/10 03:46:50;;;;;;;10.18;5.18;;;;;;;;;;4912143;29;20095;-69
2022/03/10 03:49:19;;;;;;;15.18;5.00;;;;;;;;;;4918362;29;20075;-69
2022/03/10 03:51:47;;;;;;;11.48;5.05;;;;;;;;;;4927391;29;20505;-69
2022/03/10 03:54:15;;;;;;;13.52;5.20;;;;;;;;;;4932217;29;20056;-69
2022/03/10 03:56:43;;;;;;;9.63;4.70;;;;;;;;;;4929689;29;20119;-69
2022/03/10 03:59:12;;;;;;;13.73;5.35;;;;;;;;;;4928729;29;20130;-69
2022/03/10 04:01:40;;;;;;;8.85;4.82;;;;;;;;;;4931527;29;20130;-69
2022/03/10 04:04:10;;;;;;;11.90;4.97;;;;;;;;;;4931330;29;20461;-69
2022/03/10 04:06:39;;;;;;;10.65;4.75;;;;;;;;;;4925515;29;20496;-69
2022/03/10 04:09:07;;;;;;;9.63;4.57;;;;;;;;;;4928227;29;20146;-69
2022/03/10 04:11:36;;;;;;;14.10;5.28;;;;;;;;;;4929752;29;20095;-69
2022/03/10 04:14:04;;;;;;;11.13;4.40;;;;;;;;;;4932595;29;20142;-69
2022/03/10 04:16:33;;;;;;;12.73;4.82;;;;;;;;;;4931135;29;20063;-69
2022/03/10 04:19:01;;;;;;;8.80;4.93;;;;;;;;;;4930184;29;20048;-69
2022/03/10 04:21:31;;;;;;;9.43;4.43;;;;;;;;;;4929942;29;20150;-69
2022/03/10 04:24:00;;;;;;;13.18;5.00;;;;;;;;;;4930511;29;20585;-69
2022/03/10 04:26:28;;;;;;;13.35;5.38;;;;;;;;;;4924958;29;20059;-69
2022/03/10 04:28:56;;;;;;;12.48;5.05;;;;;;;;;;4925297;29;20077;-69
2022/03/10 04:31:25;;;;;;;11.73;5.13;;;;;;;;;;4910691;29;20146;-69
2022/03/10 04:33:54;;;;;;;16.80;5.85;;;;;;;;;;4906891;29;20048;-69
2022/03/10 04:36:23;;;;;;;14.27;5.43;;;;;;;;;;4908250;29;20055;-69
2022/03/10 04:38:53;;;;;;;11.57;5.82;;;;;;;;;;4911927;29;20040;-69
2022/03/10 04:41:24;;;;;;;12.95;5.43;;;;;;;;;;4909766;29;20087;-69
2022/03/10 04:43:52;;;;;;;13.50;5.10;;;;;;;;;;4907757;29;20076;-69
2022/03/10 04:46:22;;;;;;;13.63;4.78;;;;;;;;;;4911848;29;20134;-69
2022/03/10 04:48:50;;;;;;;11.38;4.28;;;;;;;;;;4909084;29;20053;-69
2022/03/10 04:51:18;;;;;;;12.27;4.93;;;;;;;;;;4911776;29;20052;-69
2022/03/10 04:53:47;;;;;;;10.10;4.60;;;;;;;;;;4909404;29;20171;-69
2022/03/10 04:56:17;;;;;;;13.15;5.15;;;;;;;;;;4912558;29;20147;-69
2022/03/10 04:58:45;;;;;;;11.95;4.95;;;;;;;;;;4912896;29;20139;-69
2022/03/10 05:01:14;;;;;;;9.35;4.35;;;;;;;;;;4909238;29;20159;-69
2022/03/10 05:03:42;;;;;;;12.57;4.95;;;;;;;;;;4913649;29;20059;-69
2022/03/10 05:06:11;;;;;;;14.70;4.70;;;;;;;;;;4914433;29;20087;-69
2022/03/10 05:08:39;;;;;;;10.70;4.38;;;;;;;;;;4913287;29;20087;-69
2022/03/10 05:11:10;;;;;;;11.32;4.80;;;;;;;;;;4932344;29;20103;-69
2022/03/10 05:13:40;;;;;;;11.88;5.10;;;;;;;;;;4933401;29;20103;-69
2022/03/10 05:16:08;;;;;;;10.07;4.88;;;;;;;;;;4932418;29;20075;-69
2022/03/10 05:18:36;;;;;;;10.00;5.22;;;;;;;;;;4931845;29;20096;-69
2022/03/10 05:21:08;;;;;;;13.27;5.03;;;;;;;;;;4910284;29;20358;-69
2022/03/10 05:23:36;;;;;;;9.18;4.40;;;;;;;;;;4911637;29;20127;-69
2022/03/10 05:26:08;;;;;;;12.55;5.32;;;;;;;;;;4910988;29;20555;-69
2022/03/10 05:28:39;;;;;;;10.70;4.70;;;;;;;;;;4911835;29;20052;-69
2022/03/10 05:31:10;;;;;;;13.05;4.80;;;;;;;;;;4910833;29;20052;-69
2022/03/10 05:33:39;;;;;;;9.93;4.50;;;;;;;;;;4904016;29;20095;-69
2022/03/10 05:36:08;;;;;;;13.63;4.63;;;;;;;;;;4911152;29;20473;-69
2022/03/10 05:38:37;;;;;;;7.63;3.65;;;;;;;;;;4909465;29;20753;-69
2022/03/10 05:41:09;;;;;;;11.85;4.60;;;;;;;;;;4912135;29;20135;-69
2022/03/10 05:43:38;;;;;;;10.85;5.07;;;;;;;;;;4912972;29;20079;-69
2022/03/10 05:46:10;;;;;;;8.30;4.20;;;;;;;;;;4919300;29;20062;-70
2022/03/10 05:48:38;;;;;;;10.13;4.10;;;;;;;;;;4914398;29;20075;-70
2022/03/10 05:51:10;;;;;;;10.60;4.80;;;;;;;;;;4909480;29;20182;-70
2022/03/10 05:53:38;;;;;;;10.25;4.90;;;;;;;;;;4918186;29;20136;-69
2022/03/10 05:56:10;;;;;;;7.80;4.00;;;;;;;;;;4911966;29;20052;-69
2022/03/10 05:58:38;;;;;;;8.23;4.50;;;;;;;;;;4908746;29;20044;-69
2022/03/10 06:01:11;;;;;;;11.98;4.90;;;;;;;;;;4912591;29;20052;-69
2022/03/10 06:03:40;;;;;;;8.23;4.05;;;;;;;;;;4912234;29;20071;-70
2022/03/10 06:06:09;;;;;;;10.05;3.92;;;;;;;;;;4911348;29;20044;-69
2022/03/10 06:08:37;;;;;;;8.98;4.05;;;;;;;;;;4909108;28;20084;-70
2022/03/10 06:11:09;;;;;;;13.93;4.65;;;;;;;;;;4932204;29;20126;-69
2022/03/10 06:13:38;;;;;;;10.32;5.15;;;;;;;;;;4928167;29;20205;-70
2022/03/10 06:16:11;;;;;;;13.65;5.03;;;;;;;;;;4930097;29;20063;-69
2022/03/10 06:18:39;;;;;;;12.32;4.75;;;;;;;;;;4930311;29;20094;-70
2022/03/10 06:21:10;;;;;;;11.35;4.22;;;;;;;;;;4930277;29;20142;-69
2022/03/10 06:23:39;;;;;;;11.27;5.15;;;;;;;;;;4927125;29;20151;-69
2022/03/10 06:26:09;;;;;;;16.08;4.72;;;;;;;;;;4925312;29;20082;-69
2022/03/10 06:28:37;;;;;;;10.52;4.10;;;;;;;;;;4929784;29;20354;-70
2022/03/10 06:31:09;;;;;;;11.57;4.25;;;;;;;;;;4928507;29;20054;-69
2022/03/10 06:33:39;;;;;;;11.23;4.82;;;;;;;;;;4930425;29;20130;-70
2022/03/10 06:36:12;;;;;;;11.15;4.35;;;;;;;;;;4931949;29;20337;-70
2022/03/10 06:38:41;;;;;;;11.73;4.93;;;;;;;;;;4928454;29;20143;-70
2022/03/10 06:41:09;;;;;;;10.23;4.90;;;;;;;;;;4928837;29;20055;-69
2022/03/10 06:43:37;;;;;;;14.52;4.82;;;;;;;;;;4925499;29;20138;-69
2022/03/10 06:46:09;;;;;;;12.90;4.50;;;;;;;;;;4929610;29;20139;-69
2022/03/10 06:48:39;;;;;;;9.57;4.07;;;;;;;;;;4927627;29;20040;-70
2022/03/10 06:51:08;;;;;;;8.63;4.40;;;;;;;;;;4910921;29;20135;-70
2022/03/10 06:53:36;;;;;;;17.63;4.80;;;;;;;;;;4911989;29;20063;-70
2022/03/10 06:56:10;;;;;;;13.23;5.00;;;;;;;;;;4911227;29;20063;-70
2022/03/10 06:58:40;;;;;;;15.60;4.80;;;;;;;;;;4912005;29;20522;-70
2022/03/10 07:01:08;;;;;;;14.23;5.93;;;;;;;;;;4924050;29;20051;-70
2022/03/10 07:03:37;;;;;;;11.00;5.30;;;;;;;;;;4929818;29;20087;-69
2022/03/10 07:06:10;;;;;;;11.07;4.95;;;;;;;;;;4926880;29;20408;-69
2022/03/10 07:08:39;;;;;;;11.68;5.05;;;;;;;;;;4928528;29;20063;-69
2022/03/10 07:11:10;;;;;;;7.95;3.92;;;;;;;;;;4911464;29;20143;-69
2022/03/10 07:13:38;;;;;;;12.05;4.90;;;;;;;;;;4911232;29;20052;-69
2022/03/10 07:16:10;;;;;;;18.35;4.70;;;;;;;;;;4906985;29;20144;-69
2022/03/10 07:18:38;;;;;;;14.02;5.80;;;;;;;;;;4909132;29;20087;-69
2022/03/10 07:21:11;;;;;;;12.13;5.25;;;;;;;;;;4926847;29;20119;-68
2022/03/10 07:23:39;;;;;;;11.93;5.03;;;;;;;;;;4926595;29;20106;-69
2022/03/10 07:26:11;;;;;;;12.07;4.63;;;;;;;;;;4926620;29;20071;-69
2022/03/10 07:28:39;;;;;;;9.50;4.47;;;;;;;;;;4925936;29;20153;-70
2022/03/10 07:31:08;;;;;;;15.80;5.63;;;;;;;;;;4913724;29;20103;-69
2022/03/10 07:33:37;;;;;;;16.08;4.85;;;;;;;;;;4913495;29;20083;-69
2022/03/10 07:36:08;;;;;;;16.38;5.13;;;;;;;;;;4915509;29;20056;-69
2022/03/10 07:38:39;;;;;;;12.20;4.60;;;;;;;;;;4914007;29;20585;-70
2022/03/10 07:41:08;;;;;;;10.68;4.95;;;;;;;;;;4910390;29;20445;-69
2022/03/10 07:43:36;;;;;;;15.00;5.38;;;;;;;;;;4910474;29;20059;-69
2022/03/10 07:46:13;;;;;;;11.55;5.13;;;;;;;;;;4912562;29;20052;-69
2022/03/10 07:48:42;;;;;;;14.55;4.85;;;;;;;;;;4910462;29;20044;-69
2022/03/10 07:51:10;;;;;;;11.90;4.10;;;;;;;;;;4928809;29;20500;-69
2022/03/10 07:53:40;;;;;;;9.57;4.50;;;;;;;;;;4929343;29;20122;-69
2022/03/10 07:56:09;;;;;;;13.52;5.18;;;;;;;;;;4928538;29;20488;-71
2022/03/10 07:58:38;;;;;;;19.65;4.93;;;;;;;;;;4924086;29;20079;-68
2022/03/10 08:01:10;;;;;;;12.07;4.95;;;;;;;;;;4911728;29;20060;-68
2022/03/10 08:03:39;;;;;;;14.10;4.95;;;;;;;;;;4909338;29;20187;-69
2022/03/10 08:06:11;;;;;;;11.60;4.40;;;;;;;;;;4906529;29;20051;-69
2022/03/10 08:08:42;;;;;;;13.13;4.57;;;;;;;;;;4899536;29;20048;-69
2022/03/10 08:11:11;;;;;;;11.30;4.93;;;;;;;;;;4910824;29;20076;-69
2022/03/10 08:13:39;;;;;;;10.95;4.47;;;;;;;;;;4901572;29;20438;-69
2022/03/10 08:16:10;;;;;;;12.30;4.93;;;;;;;;;;4910344;29;20056;-69
2022/03/10 08:18:39;;;;;;;13.40;4.90;;;;;;;;;;4907821;29;20477;-69
2022/03/10 08:21:11;;;;;;;16.50;4.45;;;;;;;;;;4909505;29;20052;-69
2022/03/10 08:23:41;;;;;;;11.90;5.25;;;;;;;;;;4906450;29;20060;-68
2022/03/10 08:26:10;;;;;;;10.55;4.80;;;;;;;;;;4905735;29;20059;-69
2022/03/10 08:28:38;;;;;;;8.60;4.43;;;;;;;;;;4906415;29;20489;-69
2022/03/10 08:31:10;;;;;;;9.45;4.05;;;;;;;;;;4908590;29;20055;-69
2022/03/10 08:33:39;;;;;;;9.88;4.47;;;;;;;;;;4903663;29;20044;-69
2022/03/10 08:36:08;;;;;;;11.30;4.25;;;;;;;;;;4907564;29;20067;-69
2022/03/10 08:38:37;;;;;;;12.73;4.45;;;;;;;;;;4909245;29;21144;-69
2022/03/10 08:41:11;;;;;;;12.25;4.72;;;;;;;;;;4905383;29;20053;-69
2022/03/10 08:43:40;;;;;;;12.13;4.60;;;;;;;;;;4903290;29;20131;-69
2022/03/10 08:46:09;;;;;;;11.32;4.13;;;;;;;;;;4910229;29;20099;-69
2022/03/10 08:48:39;;;;;;;12.95;5.00;;;;;;;;;;4908815;29;20044;-69
2022/03/10 08:51:10;;;;;;;8.80;4.32;;;;;;;;;;4907605;29;20373;-69
2022/03/10 08:53:39;;;;;;;11.88;4.40;;;;;;;;;;4906759;29;20044;-69
2022/03/10 08:56:12;;;;;;;10.65;4.10;;;;;;;;;;4915323;29;20132;-70
2022/03/10 08:58:40;;;;;;;11.50;4.30;;;;;;;;;;4903539;29;20044;-70
2022/03/10 09:01:09;;;;;;;12.65;4.50;;;;;;;;;;4910762;29;20060;-70
2022/03/10 09:03:53;;;;;;;9.15;3.88;;;;;;;;;;4908441;29;20056;-69
2022/03/10 09:06:25;;;;;;;9.38;4.03;;;;;;;;;;4904684;29;20056;-69
2022/03/10 09:08:54;;;;;;;10.55;4.18;;;;;;;;;;4909939;29;20052;-69
2022/03/10 09:11:24;;;;;;;9.73;4.05;;;;;;;;;;4908971;29;20048;-69
2022/03/10 09:13:53;;;;;;;10.40;4.75;;;;;;;;;;4910992;29;20058;-69
2022/03/10 09:16:22;;;;;;;10.18;4.28;;;;;;;;;;4911720;29;20060;-69
2022/03/10 09:18:51;;;;;;;12.32;4.47;;;;;;;;;;4912830;29;20127;-69
2022/03/10 09:21:20;;;;;;;6.78;3.97;;;;;;;;;;4908693;29;20047;-69
2022/03/10 09:23:49;;;;;;;7.85;3.88;;;;;;;;;;4913595;29;20056;-69
2022/03/10 09:26:18;;;;;;;9.23;3.80;;;;;;;;;;4911494;29;20092;-69
2022/03/10 09:28:48;;;;;;;7.90;4.07;;;;;;;;;;4914337;29;20114;-69
2022/03/10 09:31:17;;;;;;;9.38;3.88;;;;;;;;;;4914353;29;20052;-69
2022/03/10 09:33:46;;;;;;;11.40;4.80;;;;;;;;;;4912047;29;20053;-69
2022/03/10 09:36:15;;;;;;;8.55;4.60;;;;;;;;;;4914422;29;20052;-69
2022/03/10 09:38:44;;;;;;;7.15;3.53;;;;;;;;;;4909198;29;20082;-69
2022/03/10 09:41:14;;;;;;;7.95;4.20;;;;;;;;;;4929638;29;20048;-70
2022/03/10 09:43:42;;;;;;;7.78;3.95;;;;;;;;;;4935476;29;20056;-69
2022/03/10 09:46:13;;;;;;;7.53;4.22;;;;;;;;;;4932214;29;20043;-70
2022/03/10 09:48:42;;;;;;;8.82;4.30;;;;;;;;;;4933366;29;20040;-70
2022/03/10 09:51:11;;;;;;;6.55;4.18;;;;;;;;;;4935402;29;20051;-69
2022/03/10 09:53:40;;;;;;;10.65;4.22;;;;;;;;;;4934754;29;20055;-69
2022/03/10 09:56:09;;;;;;;13.18;4.70;;;;;;;;;;4934073;29;20119;-69
2022/03/10 09:58:40;;;;;;;8.18;4.22;;;;;;;;;;4929900;29;20047;-70
2022/03/10 10:01:08;;;;;;;9.77;4.82;;;;;;;;;;4931145;29;20051;-70
2022/03/10 10:03:39;;;;;;;6.32;3.80;;;;;;;;;;4921450;29;20056;-70
2022/03/10 10:06:11;;;;;;;9.32;4.85;;;;;;;;;;4928640;29;20051;-70
2022/03/10 10:08:41;;;;;;;7.50;4.00;;;;;;;;;;4933907;29;20127;-70
2022/03/10 10:11:15;;;;;;;8.57;4.60;;;;;;;;;;4934967;29;20058;-70
2022/03/10 10:13:47;;;;;;;9.77;4.35;;;;;;;;;;4929628;29;20103;-70
2022/03/10 10:16:17;;;;;;;8.93;4.00;;;;;;;;;;4929446;29;20055;-70
2022/03/10 10:18:48;;;;;;;8.85;3.97;;;;;;;;;;4932552;29;20051;-70
2022/03/10 10:21:21;;;;;;;11.90;4.57;;;;;;;;;;4913111;29;20148;-70
2022/03/10 10:23:50;;;;;;;9.90;5.15;;;;;;;;;;4908228;29;20143;-70
2022/03/10 10:26:20;;;;;;;7.88;4.28;;;;;;;;;;4916621;29;20071;-70
2022/03/10 10:28:51;;;;;;;9.07;4.60;;;;;;;;;;4916228;29;20040;-70
2022/03/10 10:31:20;;;;;;;10.65;4.30;;;;;;;;;;4934394;29;20054;-70
2022/03/10 10:34:00;;;;;;;8.20;3.90;;;;;;;;;;4933232;29;20485;-70
2022/03/10 10:36:29;;;;;;;8.15;4.07;;;;;;;;;;4930297;29;20111;-70
2022/03/10 10:38:59;;;;;;;7.72;4.40;;;;;;;;;;4929112;29;20054;-69
2022/03/10 10:41:28;;;;;;;11.32;4.25;;;;;;;;;;4904574;29;20052;-70
2022/03/10 10:43:58;;;;;;;7.13;3.50;;;;;;;;;;4914311;29;20076;-70
2022/03/10 10:46:28;;;;;;;6.50;3.38;;;;;;;;;;4914760;29;20083;-70
2022/03/10 10:48:59;;;;;;;6.72;3.60;;;;;;;;;;4912646;29;20056;-69
2022/03/10 10:51:32;;;;;;;8.45;3.45;;;;;;;;;;4934982;29;20523;-70
2022/03/10 10:54:02;;;;;;;10.05;3.97;;;;;;;;;;4933807;29;20139;-69
2022/03/10 10:56:30;;;;;;;5.28;3.03;;;;;;;;;;4933825;29;20044;-69
2022/03/10 10:59:00;;;;;;;6.43;3.20;;;;;;;;;;4926062;29;20047;-70
2022/03/10 11:01:33;;;;;;;5.57;3.20;;;;;;;;;;4934830;29;20106;-70
2022/03/10 11:04:05;;;;;;;7.82;3.45;;;;;;;;;;4934266;29;20526;-70
2022/03/10 11:06:34;;;;;;;10.00;3.58;;;;;;;;;;4932454;29;20051;-70
2022/03/10 11:09:02;;;;;;;8.68;3.70;;;;;;;;;;4931350;29;20059;-69
2022/03/10 11:11:32;;;;;;;12.80;3.45;;;;;;;;;;4933951;29;20330;-70
2022/03/10 11:14:02;;;;;;;7.57;3.17;;;;;;;;;;4931927;29;20508;-70
2022/03/10 11:16:31;;;;;;;8.50;3.97;;;;;;;;;;4933581;29;20051;-69
2022/03/10 11:19:00;;;;;;;6.80;3.92;;;;;;;;;;4933270;29;20099;-71
2022/03/10 11:21:43;;;;;;;8.40;3.92;;;;;;;;;;4930662;29;20055;-70
2022/03/10 11:24:17;;;;;;;8.07;4.15;;;;;;;;;;4932566;29;20083;-70
2022/03/10 11:26:50;;;;;;;8.27;4.30;;;;;;;;;;4933319;29;20128;-70
2022/03/10 11:29:22;;;;;;;8.80;4.15;;;;;;;;;;4933031;29;20496;-70
2022/03/10 11:31:52;;;;;;;9.73;4.65;;;;;;;;;;4931005;29;20043;-70
2022/03/10 11:34:39;;;;;;;9.30;4.47;;;;;;;;;;4932898;29;20079;-70
2022/03/10 11:37:11;;;;;;;12.88;4.50;;;;;;;;;;4930312;29;20047;-70
2022/03/10 11:39:53;;;;;;;6.60;3.88;;;;;;;;;;4925790;29;20583;-70
2022/03/10 11:42:26;;;;;;;8.73;4.32;;;;;;;;;;4932283;29;20079;-70
2022/03/10 11:45:06;;;;;;;9.57;4.40;;;;;;;;;;4927292;29;20047;-70
2022/03/10 11:47:35;;;;;;;9.38;4.03;;;;;;;;;;4932010;29;20048;-70
2022/03/10 11:50:36;;;;;;;9.18;4.32;;;;;;;;;;4915401;29;20060;-70
2022/03/10 11:53:07;;;;;;;8.90;4.32;;;;;;;;;;4854862;29;20121;-68
2022/03/10 11:55:43;;;;;;;7.35;4.50;;;;;;;;;;4849731;29;20057;-68
2022/03/10 11:58:14;;;;;;;7.05;3.88;;;;;;;;;;4886083;29;20127;-68
2022/03/10 12:00:53;;;;;;;6.55;4.03;;;;;;;;;;4911586;29;20413;-69
2022/03/10 12:03:30;;;;;;;8.13;4.68;;;;;;;;;;4909172;29;20230;-69
2022/03/10 12:06:01;;;;;;;10.40;4.20;;;;;;;;;;4909880;29;20055;-69
2022/03/10 12:08:31;;;;;;;8.73;4.47;;;;;;;;;;4911580;29;20485;-69
2022/03/10 12:11:00;;;;;;;7.20;3.97;;;;;;;;;;4917100;29;20460;-69
2022/03/10 12:13:30;;;;;;;7.13;3.80;;;;;;;;;;4915021;29;20103;-69
2022/03/10 12:15:59;;;;;;;8.82;4.03;;;;;;;;;;4913140;29;20071;-69
2022/03/10 12:18:32;;;;;;;9.48;3.97;;;;;;;;;;4908902;29;20052;-69
2022/03/10 12:21:01;;;;;;;6.32;3.80;;;;;;;;;;4915135;29;20058;-68
2022/03/10 12:23:32;;;;;;;10.45;5.03;;;;;;;;;;4909672;29;20063;-69
2022/03/10 12:26:11;;;;;;;9.65;4.45;;;;;;;;;;4911693;29;20507;-69
2022/03/10 12:28:42;;;;;;;10.38;4.68;;;;;;;;;;4905163;29;20047;-69
2022/03/10 12:31:16;;;;;;;9.93;4.25;;;;;;;;;;4912820;29;20107;-69
2022/03/10 12:33:47;;;;;;;7.00;3.53;;;;;;;;;;4905038;29;20044;-69
2022/03/10 12:36:24;;;;;;;7.43;4.28;;;;;;;;;;4910095;29;20051;-69
2022/03/10 12:38:55;;;;;;;7.32;4.32;;;;;;;;;;4909707;29;20083;-70
2022/03/10 12:41:30;;;;;;;7.38;3.75;;;;;;;;;;4911246;29;20045;-70
2022/03/10 12:44:01;;;;;;;10.07;4.90;;;;;;;;;;4907578;29;20131;-70
2022/03/10 12:46:32;;;;;;;10.85;4.75;;;;;;;;;;4908713;29;20534;-71
2022/03/10 12:49:04;;;;;;;7.63;4.07;;;;;;;;;;4910988;29;20051;-71
2022/03/10 12:51:35;;;;;;;8.15;4.05;;;;;;;;;;4912920;29;20096;-69
2022/03/10 12:54:05;;;;;;;9.20;4.13;;;;;;;;;;4912422;29;20048;-69
2022/03/10 12:56:44;;;;;;;10.25;4.38;;;;;;;;;;4911678;29;20051;-71
2022/03/10 12:59:13;;;;;;;9.25;4.07;;;;;;;;;;4907056;29;20056;-70
2022/03/10 13:01:42;;;;;;;8.55;3.97;;;;;;;;;;4910708;29;20512;-70
2022/03/10 13:04:17;;;;;;;11.02;4.35;;;;;;;;;;4912449;29;20104;-70
2022/03/10 13:06:47;;;;;;;7.30;3.75;;;;;;;;;;4904246;29;20139;-70
2022/03/10 13:09:24;;;;;;;9.98;4.25;;;;;;;;;;4908539;29;20047;-70
2022/03/10 13:11:57;;;;;;;10.05;4.32;;;;;;;;;;4908576;29;20116;-70
2022/03/10 13:14:27;;;;;;;9.75;4.30;;;;;;;;;;4909127;29;20063;-70
2022/03/10 13:16:55;;;;;;;7.20;3.90;;;;;;;;;;4916121;29;20052;-70
2022/03/10 13:22:58;;;;;;;9.52;4.28;;;;;;;;;;4908261;29;20071;-70
2022/03/10 13:25:29;;;;;;;6.63;3.45;;;;;;;;;;4914136;29;20115;-70
2022/03/10 13:28:00;;;;;;;10.60;3.38;;;;;;;;;;4914720;29;20131;-70
2022/03/10 13:30:30;;;;;;;8.68;3.97;;;;;;;;;;4925134;29;20480;-70
2022/03/10 13:32:59;;;;;;;6.07;3.13;;;;;;;;;;4929477;29;20055;-71
2022/03/10 13:35:29;;;;;;;6.78;3.35;;;;;;;;;;4927714;29;20040;-71
2022/03/10 13:37:59;;;;;;;8.60;3.75;;;;;;;;;;4932580;29;20047;-71
2022/03/10 13:40:30;;;;;;;6.78;3.50;;;;;;;;;;4934105;29;20047;-71
2022/03/10 13:43:00;;;;;;;5.05;3.08;;;;;;;;;;4927622;29;20052;-70
2022/03/10 13:45:31;;;;;;;8.68;3.42;;;;;;;;;;4929811;29;20491;-71
2022/03/10 13:48:01;;;;;;;6.38;3.60;;;;;;;;;;4931261;29;20051;-71
2022/03/10 13:50:33;;;;;;;6.28;3.15;;;;;;;;;;4918088;29;20048;-71
2022/03/10 13:53:04;;;;;;;7.90;3.90;;;;;;;;;;4911438;29;20513;-71
2022/03/10 13:55:35;;;;;;;7.82;3.42;;;;;;;;;;4912751;29;20048;-71
2022/03/10 13:58:05;;;;;;;6.15;3.58;;;;;;;;;;4912266;29;20197;-70
2022/03/10 14:00:35;;;;;;;8.77;3.80;;;;;;;;;;4928382;29;20059;-70
2022/03/10 14:03:08;;;;;;;9.07;3.92;;;;;;;;;;4931824;29;20051;-70
2022/03/10 14:05:40;;;;;;;8.68;3.80;;;;;;;;;;4927207;29;20060;-70
2022/03/10 14:08:13;;;;;;;7.00;3.47;;;;;;;;;;4933137;29;20056;-70
2022/03/10 14:10:42;;;;;;;6.45;3.28;;;;;;;;;;4916309;29;20045;-70
2022/03/10 14:13:11;;;;;;;6.97;3.08;;;;;;;;;;4913854;29;20099;-70
2022/03/10 14:15:40;;;;;;;7.43;3.95;;;;;;;;;;4914625;29;20048;-70
2022/03/10 14:18:10;;;;;;;9.68;4.35;;;;;;;;;;4914047;29;20055;-70
2022/03/10 14:20:48;;;;;;;11.25;5.25;;;;;;;;;;4907906;29;20112;-70
2022/03/10 14:23:17;;;;;;;9.98;4.65;;;;;;;;;;4911652;29;20445;-70
2022/03/10 14:25:48;;;;;;;6.38;3.30;;;;;;;;;;4915128;29;20412;-70
2022/03/10 14:28:18;;;;;;;6.97;3.38;;;;;;;;;;4910960;29;20056;-71
2022/03/10 14:30:51;;;;;;;7.10;3.20;;;;;;;;;;4912939;29;20500;-70
2022/03/10 14:33:21;;;;;;;8.35;4.20;;;;;;;;;;4914468;29;20084;-71
2022/03/10 14:35:50;;;;;;;10.00;3.88;;;;;;;;;;4910812;29;20048;-70
2022/03/10 14:38:19;;;;;;;7.40;3.90;;;;;;;;;;4910264;29;20075;-70
2022/03/10 14:40:49;;;;;;;8.05;4.10;;;;;;;;;;4933751;29;20416;-70
2022/03/10 14:43:17;;;;;;;13.30;4.75;;;;;;;;;;4932442;29;20110;-71
2022/03/10 14:45:46;;;;;;;12.60;4.82;;;;;;;;;;4929134;29;20071;-71
2022/03/10 14:48:16;;;;;;;8.30;4.28;;;;;;;;;;4930462;29;20052;-71
2022/03/10 14:50:45;;;;;;;12.05;3.83;;;;;;;;;;4930225;29;21646;-70
2022/03/10 14:53:16;;;;;;;10.13;4.28;;;;;;;;;;4937707;29;20268;-70
2022/03/10 14:55:45;;;;;;;8.18;4.13;;;;;;;;;;4927779;29;20058;-70
2022/03/10 14:58:17;;;;;;;9.90;4.22;;;;;;;;;;4932980;29;20145;-71
2022/03/10 15:00:53;;;;;;;8.43;3.78;;;;;;;;;;4933251;29;20048;-71
2022/03/10 15:03:22;;;;;;;11.00;3.92;;;;;;;;;;4931691;29;20114;-71